< < Back
Terminal Aerodrome Forecast


Current Version              Previous Versions:   1  2  3  4  5  6  7  8  9  

Terminal Aerodrome Forecast

957
FTUS42 KGSP 190521
TAFGSP
TAF
KGSP 190521Z 1906/2006 00000KT P6SM SCT060 BKN250
     FM191200 35003KT P6SM FEW060 SCT250
     FM191700 05004KT P6SM SCT250
     FM200300 07003KT P6SM -RA BKN070=



Latest METAR

233
SAUS70 KWBC 200100 RRE
MTRGSP
METAR KGSP 200053Z 00000KT 10SM CLR 08/01 A3013 RMK AO2 SLP204
T00830011


USA.gov is the U.S. government's official web portal to all federal, state and local government web resources and services.